sensor_id;sensor_type;location;lat;lon;timestamp;P1;durP1;ratioP1;P2;durP2;ratioP2
14203;SDS011;7185;51.854;6.622;2022-09-09T00:00:53;6.70;;;1.20;;
14203;SDS011;7185;51.854;6.622;2022-09-09T00:03:31;3.45;;;1.20;;
14203;SDS011;7185;51.854;6.622;2022-09-09T00:06:12;3.50;;;1.08;;
14203;SDS011;7185;51.854;6.622;2022-09-09T00:08:53;3.00;;;1.10;;
14203;SDS011;7185;51.854;6.622;2022-09-09T00:11:33;4.43;;;0.95;;
14203;SDS011;7185;51.854;6.622;2022-09-09T00:14:15;2.45;;;1.17;;
14203;SDS011;7185;51.854;6.622;2022-09-09T00:16:54;2.58;;;0.95;;
14203;SDS011;7185;51.854;6.622;2022-09-09T00:19:31;2.58;;;1.00;;
14203;SDS011;7185;51.854;6.622;2022-09-09T00:22:14;2.13;;;1.10;;
14203;SDS011;7185;51.854;6.622;2022-09-09T00:24:48;5.25;;;0.80;;
14203;SDS011;7185;51.854;6.622;2022-09-09T00:27:25;4.57;;;1.73;;
14203;SDS011;7185;51.854;6.622;2022-09-09T00:30:12;3.88;;;1.50;;
14203;SDS011;7185;51.854;6.622;2022-09-09T00:32:50;2.70;;;1.40;;
14203;SDS011;7185;51.854;6.622;2022-09-09T00:35:29;3.00;;;1.52;;
14203;SDS011;7185;51.854;6.622;2022-09-09T00:38:05;3.42;;;1.50;;
14203;SDS011;7185;51.854;6.622;2022-09-09T00:40:45;6.80;;;1.60;;
14203;SDS011;7185;51.854;6.622;2022-09-09T00:43:26;3.85;;;1.67;;
14203;SDS011;7185;51.854;6.622;2022-09-09T00:46:15;4.95;;;1.80;;
14203;SDS011;7185;51.854;6.622;2022-09-09T00:49:09;2.67;;;1.63;;
14203;SDS011;7185;51.854;6.622;2022-09-09T00:51:52;2.80;;;1.40;;
14203;SDS011;7185;51.854;6.622;2022-09-09T00:54:38;3.08;;;1.50;;
14203;SDS011;7185;51.854;6.622;2022-09-09T00:57:26;4.80;;;1.58;;
14203;SDS011;7185;51.854;6.622;2022-09-09T01:00:02;4.30;;;1.70;;
14203;SDS011;7185;51.854;6.622;2022-09-09T01:05:54;4.22;;;2.30;;
14203;SDS011;7185;51.854;6.622;2022-09-09T01:08:39;5.55;;;3.17;;
14203;SDS011;7185;51.854;6.622;2022-09-09T01:11:23;7.47;;;4.68;;
14203;SDS011;7185;51.854;6.622;2022-09-09T01:13:58;9.57;;;5.25;;
14203;SDS011;7185;51.854;6.622;2022-09-09T01:16:36;8.95;;;4.57;;
14203;SDS011;7185;51.854;6.622;2022-09-09T01:19:10;6.07;;;4.00;;
14203;SDS011;7185;51.854;6.622;2022-09-09T01:21:54;6.05;;;3.78;;
14203;SDS011;7185;51.854;6.622;2022-09-09T01:24:35;6.32;;;3.45;;
14203;SDS011;7185;51.854;6.622;2022-09-09T01:27:13;6.00;;;3.38;;
14203;SDS011;7185;51.854;6.622;2022-09-09T01:29:47;6.03;;;2.47;;
14203;SDS011;7185;51.854;6.622;2022-09-09T01:35:28;2.90;;;1.70;;
14203;SDS011;7185;51.854;6.622;2022-09-09T01:38:07;2.15;;;1.40;;
14203;SDS011;7185;51.854;6.622;2022-09-09T01:40:39;2.20;;;1.38;;
14203;SDS011;7185;51.854;6.622;2022-09-09T01:43:12;3.30;;;1.80;;
14203;SDS011;7185;51.854;6.622;2022-09-09T01:45:44;4.32;;;1.70;;
14203;SDS011;7185;51.854;6.622;2022-09-09T01:48:20;2.72;;;1.90;;
14203;SDS011;7185;51.854;6.622;2022-09-09T01:50:53;3.00;;;1.80;;
14203;SDS011;7185;51.854;6.622;2022-09-09T01:53:25;3.40;;;1.90;;
14203;SDS011;7185;51.854;6.622;2022-09-09T01:56:00;6.10;;;2.33;;
14203;SDS011;7185;51.854;6.622;2022-09-09T01:58:41;5.57;;;1.83;;
14203;SDS011;7185;51.854;6.622;2022-09-09T02:01:24;3.15;;;1.98;;
14203;SDS011;7185;51.854;6.622;2022-09-09T02:04:08;4.10;;;2.28;;
14203;SDS011;7185;51.854;6.622;2022-09-09T02:06:49;3.08;;;2.05;;
14203;SDS011;7185;51.854;6.622;2022-09-09T02:09:27;4.50;;;2.38;;
14203;SDS011;7185;51.854;6.622;2022-09-09T02:12:02;4.78;;;2.30;;
14203;SDS011;7185;51.854;6.622;2022-09-09T02:14:41;6.97;;;2.38;;
14203;SDS011;7185;51.854;6.622;2022-09-09T02:17:18;5.22;;;2.67;;
14203;SDS011;7185;51.854;6.622;2022-09-09T02:19:59;3.45;;;2.40;;
14203;SDS011;7185;51.854;6.622;2022-09-09T02:22:34;5.13;;;2.65;;
14203;SDS011;7185;51.854;6.622;2022-09-09T02:25:10;4.90;;;2.60;;
14203;SDS011;7185;51.854;6.622;2022-09-09T02:27:45;5.40;;;2.72;;
14203;SDS011;7185;51.854;6.622;2022-09-09T02:30:21;5.95;;;2.40;;
14203;SDS011;7185;51.854;6.622;2022-09-09T02:32:53;5.88;;;2.65;;
14203;SDS011;7185;51.854;6.622;2022-09-09T02:35:27;3.42;;;2.15;;
14203;SDS011;7185;51.854;6.622;2022-09-09T02:38:02;5.20;;;2.50;;
14203;SDS011;7185;51.854;6.622;2022-09-09T02:40:37;8.13;;;2.60;;
14203;SDS011;7185;51.854;6.622;2022-09-09T02:43:09;4.03;;;2.42;;
14203;SDS011;7185;51.854;6.622;2022-09-09T02:45:44;4.63;;;2.78;;
14203;SDS011;7185;51.854;6.622;2022-09-09T02:48:23;5.10;;;2.90;;
14203;SDS011;7185;51.854;6.622;2022-09-09T02:51:02;4.78;;;2.90;;
14203;SDS011;7185;51.854;6.622;2022-09-09T02:53:42;5.07;;;2.78;;
14203;SDS011;7185;51.854;6.622;2022-09-09T02:56:19;4.97;;;2.75;;
14203;SDS011;7185;51.854;6.622;2022-09-09T02:58:55;5.15;;;2.63;;
14203;SDS011;7185;51.854;6.622;2022-09-09T03:01:28;4.07;;;2.72;;
14203;SDS011;7185;51.854;6.622;2022-09-09T03:04:00;5.03;;;2.90;;
14203;SDS011;7185;51.854;6.622;2022-09-09T03:06:31;6.07;;;3.28;;
14203;SDS011;7185;51.854;6.622;2022-09-09T03:09:03;5.35;;;2.67;;
14203;SDS011;7185;51.854;6.622;2022-09-09T03:11:35;5.32;;;2.88;;
14203;SDS011;7185;51.854;6.622;2022-09-09T03:14:06;5.00;;;2.92;;
14203;SDS011;7185;51.854;6.622;2022-09-09T03:16:39;7.07;;;2.95;;
14203;SDS011;7185;51.854;6.622;2022-09-09T03:19:12;5.80;;;2.97;;
14203;SDS011;7185;51.854;6.622;2022-09-09T03:21:44;6.20;;;3.25;;
14203;SDS011;7185;51.854;6.622;2022-09-09T03:24:15;6.63;;;3.30;;
14203;SDS011;7185;51.854;6.622;2022-09-09T03:26:47;6.10;;;3.38;;
14203;SDS011;7185;51.854;6.622;2022-09-09T03:29:20;7.10;;;3.05;;
14203;SDS011;7185;51.854;6.622;2022-09-09T03:31:53;8.75;;;3.90;;
14203;SDS011;7185;51.854;6.622;2022-09-09T03:34:25;8.18;;;3.58;;
14203;SDS011;7185;51.854;6.622;2022-09-09T03:36:57;7.75;;;3.90;;
14203;SDS011;7185;51.854;6.622;2022-09-09T03:39:28;8.60;;;3.80;;
14203;SDS011;7185;51.854;6.622;2022-09-09T03:42:00;7.90;;;4.28;;
14203;SDS011;7185;51.854;6.622;2022-09-09T03:44:33;5.65;;;3.80;;
14203;SDS011;7185;51.854;6.622;2022-09-09T03:47:06;6.43;;;4.13;;
14203;SDS011;7185;51.854;6.622;2022-09-09T03:49:38;5.82;;;3.90;;
14203;SDS011;7185;51.854;6.622;2022-09-09T03:52:10;8.52;;;4.85;;
14203;SDS011;7185;51.854;6.622;2022-09-09T03:54:41;8.75;;;4.63;;
14203;SDS011;7185;51.854;6.622;2022-09-09T03:57:13;18.17;;;9.30;;
14203;SDS011;7185;51.854;6.622;2022-09-09T03:59:46;7.50;;;4.45;;
14203;SDS011;7185;51.854;6.622;2022-09-09T04:02:19;7.20;;;4.95;;
14203;SDS011;7185;51.854;6.622;2022-09-09T04:04:51;6.90;;;4.15;;
14203;SDS011;7185;51.854;6.622;2022-09-09T04:07:23;5.80;;;4.50;;
14203;SDS011;7185;51.854;6.622;2022-09-09T04:09:55;7.85;;;4.40;;
14203;SDS011;7185;51.854;6.622;2022-09-09T04:12:26;8.32;;;4.65;;
14203;SDS011;7185;51.854;6.622;2022-09-09T04:14:58;6.97;;;4.53;;
14203;SDS011;7185;51.854;6.622;2022-09-09T04:17:33;6.43;;;4.75;;
14203;SDS011;7185;51.854;6.622;2022-09-09T04:20:06;8.27;;;4.85;;
14203;SDS011;7185;51.854;6.622;2022-09-09T04:22:41;9.13;;;4.65;;
14203;SDS011;7185;51.854;6.622;2022-09-09T04:25:12;10.98;;;4.55;;
14203;SDS011;7185;51.854;6.622;2022-09-09T04:27:44;10.75;;;4.70;;
14203;SDS011;7185;51.854;6.622;2022-09-09T04:30:17;6.55;;;4.85;;
14203;SDS011;7185;51.854;6.622;2022-09-09T04:32:50;6.05;;;4.53;;
14203;SDS011;7185;51.854;6.622;2022-09-09T04:35:22;8.07;;;4.43;;
14203;SDS011;7185;51.854;6.622;2022-09-09T04:37:53;7.85;;;3.85;;
14203;SDS011;7185;51.854;6.622;2022-09-09T04:40:25;8.77;;;4.30;;
14203;SDS011;7185;51.854;6.622;2022-09-09T04:42:57;6.68;;;3.83;;
14203;SDS011;7185;51.854;6.622;2022-09-09T04:45:29;6.95;;;4.20;;
14203;SDS011;7185;51.854;6.622;2022-09-09T04:48:03;7.40;;;3.85;;
14203;SDS011;7185;51.854;6.622;2022-09-09T04:50:34;9.90;;;4.10;;
14203;SDS011;7185;51.854;6.622;2022-09-09T04:53:06;6.75;;;3.90;;
14203;SDS011;7185;51.854;6.622;2022-09-09T04:58:45;7.63;;;4.13;;
14203;SDS011;7185;51.854;6.622;2022-09-09T05:08:10;7.68;;;3.63;;
14203;SDS011;7185;51.854;6.622;2022-09-09T05:14:56;8.43;;;3.80;;
14203;SDS011;7185;51.854;6.622;2022-09-09T05:24:24;9.63;;;3.15;;
14203;SDS011;7185;51.854;6.622;2022-09-09T05:47:08;7.93;;;3.47;;
14203;SDS011;7185;51.854;6.622;2022-09-09T06:36:01;8.27;;;2.80;;
14203;SDS011;7185;51.854;6.622;2022-09-09T06:38:50;8.15;;;3.42;;
14203;SDS011;7185;51.854;6.622;2022-09-09T06:42:06;7.50;;;2.90;;
14203;SDS011;7185;51.854;6.622;2022-09-09T06:45:04;7.97;;;3.00;;
14203;SDS011;7185;51.854;6.622;2022-09-09T06:58:38;6.70;;;2.88;;
14203;SDS011;7185;51.854;6.622;2022-09-09T07:02:05;4.50;;;2.33;;
14203;SDS011;7185;51.854;6.622;2022-09-09T07:05:21;8.52;;;3.28;;
14203;SDS011;7185;51.854;6.622;2022-09-09T07:11:05;10.50;;;2.67;;
14203;SDS011;7185;51.854;6.622;2022-09-09T07:13:56;7.30;;;2.80;;
14203;SDS011;7185;51.854;6.622;2022-09-09T07:16:29;8.65;;;2.50;;
14203;SDS011;7185;51.854;6.622;2022-09-09T07:19:03;8.80;;;3.05;;
14203;SDS011;7185;51.854;6.622;2022-09-09T07:21:43;10.55;;;2.80;;
14203;SDS011;7185;51.854;6.622;2022-09-09T07:24:19;12.20;;;2.42;;
14203;SDS011;7185;51.854;6.622;2022-09-09T07:27:17;8.77;;;2.50;;
14203;SDS011;7185;51.854;6.622;2022-09-09T07:30:04;6.28;;;2.22;;
14203;SDS011;7185;51.854;6.622;2022-09-09T07:33:11;9.45;;;2.47;;
14203;SDS011;7185;51.854;6.622;2022-09-09T07:35:50;6.78;;;2.53;;
14203;SDS011;7185;51.854;6.622;2022-09-09T07:38:27;8.68;;;2.13;;
14203;SDS011;7185;51.854;6.622;2022-09-09T07:41:20;9.05;;;1.90;;
14203;SDS011;7185;51.854;6.622;2022-09-09T07:44:11;10.00;;;2.50;;
14203;SDS011;7185;51.854;6.622;2022-09-09T07:46:59;8.05;;;2.67;;
14203;SDS011;7185;51.854;6.622;2022-09-09T07:49:43;6.03;;;2.10;;
14203;SDS011;7185;51.854;6.622;2022-09-09T07:52:23;8.60;;;2.60;;
14203;SDS011;7185;51.854;6.622;2022-09-09T07:54:57;8.18;;;2.30;;
14203;SDS011;7185;51.854;6.622;2022-09-09T07:57:29;10.07;;;2.63;;
14203;SDS011;7185;51.854;6.622;2022-09-09T08:00:07;8.60;;;2.25;;
14203;SDS011;7185;51.854;6.622;2022-09-09T08:02:49;8.20;;;2.00;;
14203;SDS011;7185;51.854;6.622;2022-09-09T08:05:22;7.07;;;2.38;;
14203;SDS011;7185;51.854;6.622;2022-09-09T08:07:54;6.55;;;2.25;;
14203;SDS011;7185;51.854;6.622;2022-09-09T08:10:36;7.45;;;2.22;;
14203;SDS011;7185;51.854;6.622;2022-09-09T08:13:09;8.32;;;1.65;;
14203;SDS011;7185;51.854;6.622;2022-09-09T08:15:50;10.47;;;2.10;;
14203;SDS011;7185;51.854;6.622;2022-09-09T08:18:52;7.82;;;1.98;;
14203;SDS011;7185;51.854;6.622;2022-09-09T08:21:29;11.63;;;2.95;;
14203;SDS011;7185;51.854;6.622;2022-09-09T08:24:03;9.80;;;3.03;;
14203;SDS011;7185;51.854;6.622;2022-09-09T08:26:46;7.93;;;2.15;;
14203;SDS011;7185;51.854;6.622;2022-09-09T08:29:28;7.13;;;2.13;;
14203;SDS011;7185;51.854;6.622;2022-09-09T08:32:07;6.78;;;1.85;;
14203;SDS011;7185;51.854;6.622;2022-09-09T08:34:44;6.88;;;2.08;;
14203;SDS011;7185;51.854;6.622;2022-09-09T08:37:17;11.82;;;2.22;;
14203;SDS011;7185;51.854;6.622;2022-09-09T08:39:50;8.23;;;2.28;;
14203;SDS011;7185;51.854;6.622;2022-09-09T08:42:44;6.97;;;2.20;;
14203;SDS011;7185;51.854;6.622;2022-09-09T08:45:33;4.82;;;1.65;;
14203;SDS011;7185;51.854;6.622;2022-09-09T08:48:13;10.82;;;2.15;;
14203;SDS011;7185;51.854;6.622;2022-09-09T08:50:54;8.02;;;1.80;;
14203;SDS011;7185;51.854;6.622;2022-09-09T08:53:34;6.85;;;1.67;;
14203;SDS011;7185;51.854;6.622;2022-09-09T08:56:14;9.57;;;2.53;;
14203;SDS011;7185;51.854;6.622;2022-09-09T08:58:51;5.97;;;1.45;;
14203;SDS011;7185;51.854;6.622;2022-09-09T09:01:35;7.93;;;1.80;;
14203;SDS011;7185;51.854;6.622;2022-09-09T09:04:27;8.70;;;1.33;;
14203;SDS011;7185;51.854;6.622;2022-09-09T09:07:12;7.38;;;1.80;;
14203;SDS011;7185;51.854;6.622;2022-09-09T09:09:54;5.63;;;1.67;;
14203;SDS011;7185;51.854;6.622;2022-09-09T09:12:39;5.80;;;1.50;;
14203;SDS011;7185;51.854;6.622;2022-09-09T09:15:18;4.85;;;1.42;;
14203;SDS011;7185;51.854;6.622;2022-09-09T09:17:55;5.28;;;1.38;;
14203;SDS011;7185;51.854;6.622;2022-09-09T09:20:28;5.80;;;1.40;;
14203;SDS011;7185;51.854;6.622;2022-09-09T09:23:14;4.60;;;1.08;;
14203;SDS011;7185;51.854;6.622;2022-09-09T09:25:56;6.90;;;1.20;;
14203;SDS011;7185;51.854;6.622;2022-09-09T09:28:39;6.63;;;1.52;;
14203;SDS011;7185;51.854;6.622;2022-09-09T09:31:18;4.93;;;1.35;;
14203;SDS011;7185;51.854;6.622;2022-09-09T09:34:08;4.20;;;1.40;;
14203;SDS011;7185;51.854;6.622;2022-09-09T09:37:02;7.05;;;1.67;;
14203;SDS011;7185;51.854;6.622;2022-09-09T09:40:08;4.03;;;1.10;;
14203;SDS011;7185;51.854;6.622;2022-09-09T09:42:47;6.40;;;1.30;;
14203;SDS011;7185;51.854;6.622;2022-09-09T09:45:25;6.68;;;1.42;;
14203;SDS011;7185;51.854;6.622;2022-09-09T09:48:03;4.88;;;1.15;;
14203;SDS011;7185;51.854;6.622;2022-09-09T09:50:39;4.97;;;1.30;;
14203;SDS011;7185;51.854;6.622;2022-09-09T09:53:20;6.68;;;1.48;;
14203;SDS011;7185;51.854;6.622;2022-09-09T09:55:57;5.73;;;1.60;;
14203;SDS011;7185;51.854;6.622;2022-09-09T09:58:31;4.53;;;1.55;;
14203;SDS011;7185;51.854;6.622;2022-09-09T10:01:05;5.78;;;1.80;;
14203;SDS011;7185;51.854;6.622;2022-09-09T10:03:52;7.03;;;1.40;;
14203;SDS011;7185;51.854;6.622;2022-09-09T10:06:31;7.35;;;2.00;;
14203;SDS011;7185;51.854;6.622;2022-09-09T10:09:17;6.82;;;1.63;;
14203;SDS011;7185;51.854;6.622;2022-09-09T10:11:57;7.70;;;1.63;;
14203;SDS011;7185;51.854;6.622;2022-09-09T10:14:38;12.48;;;1.98;;
14203;SDS011;7185;51.854;6.622;2022-09-09T10:17:17;3.92;;;1.52;;
14203;SDS011;7185;51.854;6.622;2022-09-09T10:20:01;11.50;;;2.35;;
14203;SDS011;7185;51.854;6.622;2022-09-09T10:22:47;6.60;;;2.03;;
14203;SDS011;7185;51.854;6.622;2022-09-09T10:25:26;8.05;;;1.60;;
14203;SDS011;7185;51.854;6.622;2022-09-09T10:28:15;7.15;;;1.73;;
14203;SDS011;7185;51.854;6.622;2022-09-09T10:31:01;7.53;;;1.77;;
14203;SDS011;7185;51.854;6.622;2022-09-09T10:33:45;8.55;;;1.98;;
14203;SDS011;7185;51.854;6.622;2022-09-09T10:36:23;4.30;;;1.30;;
14203;SDS011;7185;51.854;6.622;2022-09-09T10:38:57;5.80;;;1.20;;
14203;SDS011;7185;51.854;6.622;2022-09-09T10:41:36;6.15;;;1.50;;
14203;SDS011;7185;51.854;6.622;2022-09-09T10:44:20;7.22;;;1.60;;
14203;SDS011;7185;51.854;6.622;2022-09-09T10:47:12;4.38;;;1.38;;
14203;SDS011;7185;51.854;6.622;2022-09-09T10:50:04;7.93;;;1.30;;
14203;SDS011;7185;51.854;6.622;2022-09-09T10:52:46;7.03;;;1.98;;
14203;SDS011;7185;51.854;6.622;2022-09-09T10:55:33;5.53;;;1.58;;
14203;SDS011;7185;51.854;6.622;2022-09-09T10:58:10;4.85;;;1.73;;
14203;SDS011;7185;51.854;6.622;2022-09-09T11:00:48;3.97;;;1.33;;
14203;SDS011;7185;51.854;6.622;2022-09-09T11:03:25;6.40;;;1.50;;
14203;SDS011;7185;51.854;6.622;2022-09-09T11:06:04;2.65;;;1.30;;
14203;SDS011;7185;51.854;6.622;2022-09-09T11:08:38;4.30;;;1.30;;
14203;SDS011;7185;51.854;6.622;2022-09-09T11:11:11;7.15;;;1.60;;
14203;SDS011;7185;51.854;6.622;2022-09-09T11:13:49;6.10;;;1.40;;
14203;SDS011;7185;51.854;6.622;2022-09-09T11:16:29;4.45;;;1.42;;
14203;SDS011;7185;51.854;6.622;2022-09-09T11:19:08;5.07;;;1.45;;
14203;SDS011;7185;51.854;6.622;2022-09-09T11:21:46;5.93;;;1.55;;
14203;SDS011;7185;51.854;6.622;2022-09-09T11:24:22;5.05;;;1.90;;
14203;SDS011;7185;51.854;6.622;2022-09-09T11:27:00;5.57;;;1.83;;
14203;SDS011;7185;51.854;6.622;2022-09-09T11:29:59;7.43;;;2.15;;
14203;SDS011;7185;51.854;6.622;2022-09-09T11:32:56;5.32;;;1.70;;
14203;SDS011;7185;51.854;6.622;2022-09-09T11:35:42;4.55;;;1.85;;
14203;SDS011;7185;51.854;6.622;2022-09-09T11:38:25;5.15;;;1.50;;
14203;SDS011;7185;51.854;6.622;2022-09-09T11:40:58;6.80;;;1.88;;
14203;SDS011;7185;51.854;6.622;2022-09-09T11:43:32;8.23;;;1.60;;
14203;SDS011;7185;51.854;6.622;2022-09-09T11:46:10;5.88;;;1.40;;
14203;SDS011;7185;51.854;6.622;2022-09-09T11:48:57;5.20;;;1.63;;
14203;SDS011;7185;51.854;6.622;2022-09-09T11:51:31;8.25;;;1.80;;
14203;SDS011;7185;51.854;6.622;2022-09-09T11:57:02;2.67;;;0.90;;
14203;SDS011;7185;51.854;6.622;2022-09-09T11:59:54;6.20;;;1.60;;
14203;SDS011;7185;51.854;6.622;2022-09-09T12:02:26;4.85;;;1.20;;
14203;SDS011;7185;51.854;6.622;2022-09-09T12:05:04;5.55;;;1.20;;
14203;SDS011;7185;51.854;6.622;2022-09-09T12:07:38;2.38;;;1.02;;
14203;SDS011;7185;51.854;6.622;2022-09-09T12:10:19;4.40;;;1.20;;
14203;SDS011;7185;51.854;6.622;2022-09-09T12:12:54;4.82;;;1.00;;
14203;SDS011;7185;51.854;6.622;2022-09-09T12:15:26;6.22;;;1.00;;
14203;SDS011;7185;51.854;6.622;2022-09-09T12:17:59;2.60;;;1.30;;
14203;SDS011;7185;51.854;6.622;2022-09-09T12:20:34;2.78;;;1.15;;
14203;SDS011;7185;51.854;6.622;2022-09-09T12:23:22;3.00;;;1.08;;
14203;SDS011;7185;51.854;6.622;2022-09-09T12:29:05;8.20;;;1.50;;
14203;SDS011;7185;51.854;6.622;2022-09-09T12:31:46;5.78;;;1.42;;
14203;SDS011;7185;51.854;6.622;2022-09-09T12:34:29;4.95;;;1.50;;
14203;SDS011;7185;51.854;6.622;2022-09-09T12:37:11;3.92;;;1.27;;
14203;SDS011;7185;51.854;6.622;2022-09-09T12:39:49;4.55;;;1.58;;
14203;SDS011;7185;51.854;6.622;2022-09-09T12:42:26;3.55;;;1.13;;
14203;SDS011;7185;51.854;6.622;2022-09-09T12:44:59;8.20;;;1.55;;
14203;SDS011;7185;51.854;6.622;2022-09-09T12:47:36;4.75;;;1.30;;
14203;SDS011;7185;51.854;6.622;2022-09-09T12:50:17;4.50;;;1.50;;
14203;SDS011;7185;51.854;6.622;2022-09-09T12:52:54;4.65;;;1.70;;
14203;SDS011;7185;51.854;6.622;2022-09-09T12:55:28;4.45;;;1.90;;
14203;SDS011;7185;51.854;6.622;2022-09-09T12:58:04;5.88;;;1.90;;
14203;SDS011;7185;51.854;6.622;2022-09-09T13:00:37;4.68;;;1.90;;
14203;SDS011;7185;51.854;6.622;2022-09-09T13:03:20;6.03;;;1.92;;
14203;SDS011;7185;51.854;6.622;2022-09-09T13:05:52;5.35;;;2.15;;
14203;SDS011;7185;51.854;6.622;2022-09-09T13:08:27;5.65;;;2.30;;
14203;SDS011;7185;51.854;6.622;2022-09-09T13:11:04;7.00;;;2.40;;
14203;SDS011;7185;51.854;6.622;2022-09-09T13:13:42;4.95;;;2.28;;
14203;SDS011;7185;51.854;6.622;2022-09-09T13:16:22;6.50;;;2.45;;
14203;SDS011;7185;51.854;6.622;2022-09-09T13:18:57;5.40;;;2.33;;
14203;SDS011;7185;51.854;6.622;2022-09-09T13:21:31;8.07;;;3.40;;
14203;SDS011;7185;51.854;6.622;2022-09-09T13:24:06;7.72;;;2.42;;
14203;SDS011;7185;51.854;6.622;2022-09-09T13:26:54;5.20;;;2.30;;
14203;SDS011;7185;51.854;6.622;2022-09-09T13:29:27;6.82;;;2.10;;
14203;SDS011;7185;51.854;6.622;2022-09-09T13:32:03;4.10;;;1.60;;
14203;SDS011;7185;51.854;6.622;2022-09-09T13:34:36;7.22;;;2.10;;
14203;SDS011;7185;51.854;6.622;2022-09-09T13:37:16;4.70;;;1.63;;
14203;SDS011;7185;51.854;6.622;2022-09-09T13:39:54;5.00;;;1.83;;
14203;SDS011;7185;51.854;6.622;2022-09-09T13:42:27;3.60;;;1.63;;
14203;SDS011;7185;51.854;6.622;2022-09-09T13:45:01;2.45;;;1.60;;
14203;SDS011;7185;51.854;6.622;2022-09-09T13:47:35;5.97;;;1.92;;
14203;SDS011;7185;51.854;6.622;2022-09-09T13:50:18;5.82;;;1.60;;
14203;SDS011;7185;51.854;6.622;2022-09-09T13:52:51;7.28;;;2.03;;
14203;SDS011;7185;51.854;6.622;2022-09-09T13:55:26;5.85;;;1.60;;
14203;SDS011;7185;51.854;6.622;2022-09-09T13:58:00;6.43;;;1.90;;
14203;SDS011;7185;51.854;6.622;2022-09-09T14:00:33;6.03;;;2.20;;
14203;SDS011;7185;51.854;6.622;2022-09-09T14:03:05;4.82;;;1.70;;
14203;SDS011;7185;51.854;6.622;2022-09-09T14:05:37;5.43;;;2.10;;
14203;SDS011;7185;51.854;6.622;2022-09-09T14:08:11;6.00;;;1.90;;
14203;SDS011;7185;51.854;6.622;2022-09-09T14:10:51;6.70;;;2.33;;
14203;SDS011;7185;51.854;6.622;2022-09-09T14:13:25;7.25;;;2.10;;
14203;SDS011;7185;51.854;6.622;2022-09-09T14:15:57;4.75;;;1.63;;
14203;SDS011;7185;51.854;6.622;2022-09-09T14:18:29;5.32;;;1.88;;
14203;SDS011;7185;51.854;6.622;2022-09-09T14:21:02;5.82;;;1.80;;
14203;SDS011;7185;51.854;6.622;2022-09-09T14:23:33;3.58;;;1.50;;
14203;SDS011;7185;51.854;6.622;2022-09-09T14:26:07;5.32;;;1.83;;
14203;SDS011;7185;51.854;6.622;2022-09-09T14:28:39;5.43;;;1.88;;
14203;SDS011;7185;51.854;6.622;2022-09-09T14:31:11;4.85;;;1.58;;
14203;SDS011;7185;51.854;6.622;2022-09-09T14:33:43;5.07;;;1.80;;
14203;SDS011;7185;51.854;6.622;2022-09-09T14:36:15;4.63;;;1.83;;
14203;SDS011;7185;51.854;6.622;2022-09-09T14:38:46;6.80;;;1.80;;
14203;SDS011;7185;51.854;6.622;2022-09-09T14:41:20;4.22;;;1.73;;
14203;SDS011;7185;51.854;6.622;2022-09-09T14:43:52;5.18;;;1.67;;
14203;SDS011;7185;51.854;6.622;2022-09-09T14:46:24;4.93;;;1.60;;
14203;SDS011;7185;51.854;6.622;2022-09-09T14:48:56;5.93;;;1.88;;
14203;SDS011;7185;51.854;6.622;2022-09-09T14:51:29;5.53;;;1.50;;
14203;SDS011;7185;51.854;6.622;2022-09-09T14:54:01;3.47;;;1.70;;
14203;SDS011;7185;51.854;6.622;2022-09-09T14:56:34;7.70;;;1.98;;
14203;SDS011;7185;51.854;6.622;2022-09-09T14:59:10;3.40;;;1.45;;
14203;SDS011;7185;51.854;6.622;2022-09-09T15:01:43;3.60;;;1.70;;
14203;SDS011;7185;51.854;6.622;2022-09-09T15:04:15;4.03;;;1.70;;
14203;SDS011;7185;51.854;6.622;2022-09-09T15:06:46;2.83;;;1.10;;
14203;SDS011;7185;51.854;6.622;2022-09-09T15:09:19;4.25;;;1.67;;
14203;SDS011;7185;51.854;6.622;2022-09-09T15:11:52;4.65;;;1.35;;
14203;SDS011;7185;51.854;6.622;2022-09-09T15:14:24;5.35;;;1.40;;
14203;SDS011;7185;51.854;6.622;2022-09-09T15:16:56;3.20;;;1.23;;
14203;SDS011;7185;51.854;6.622;2022-09-09T15:19:28;5.22;;;1.30;;
14203;SDS011;7185;51.854;6.622;2022-09-09T15:21:59;3.97;;;1.45;;
14203;SDS011;7185;51.854;6.622;2022-09-09T15:24:31;5.40;;;1.92;;
14203;SDS011;7185;51.854;6.622;2022-09-09T15:27:05;3.97;;;1.55;;
14203;SDS011;7185;51.854;6.622;2022-09-09T15:29:36;4.07;;;1.65;;
14203;SDS011;7185;51.854;6.622;2022-09-09T15:32:08;6.43;;;1.50;;
14203;SDS011;7185;51.854;6.622;2022-09-09T15:34:40;5.43;;;1.65;;
14203;SDS011;7185;51.854;6.622;2022-09-09T15:37:12;6.35;;;1.77;;
14203;SDS011;7185;51.854;6.622;2022-09-09T15:39:44;2.70;;;1.30;;
14203;SDS011;7185;51.854;6.622;2022-09-09T15:42:17;5.75;;;1.80;;
14203;SDS011;7185;51.854;6.622;2022-09-09T15:44:48;6.15;;;1.98;;
14203;SDS011;7185;51.854;6.622;2022-09-09T15:47:20;5.75;;;1.88;;
14203;SDS011;7185;51.854;6.622;2022-09-09T15:49:51;5.43;;;1.60;;
14203;SDS011;7185;51.854;6.622;2022-09-09T15:52:23;3.13;;;1.40;;
14203;SDS011;7185;51.854;6.622;2022-09-09T15:54:54;4.20;;;1.45;;
14203;SDS011;7185;51.854;6.622;2022-09-09T15:57:27;6.55;;;1.67;;
14203;SDS011;7185;51.854;6.622;2022-09-09T15:59:59;6.22;;;1.50;;
14203;SDS011;7185;51.854;6.622;2022-09-09T16:02:31;4.35;;;1.45;;
14203;SDS011;7185;51.854;6.622;2022-09-09T16:05:03;2.97;;;1.30;;
14203;SDS011;7185;51.854;6.622;2022-09-09T16:07:35;8.32;;;1.80;;
14203;SDS011;7185;51.854;6.622;2022-09-09T16:10:07;4.82;;;1.30;;
14203;SDS011;7185;51.854;6.622;2022-09-09T16:12:40;5.05;;;1.60;;
14203;SDS011;7185;51.854;6.622;2022-09-09T16:15:12;4.63;;;2.25;;
14203;SDS011;7185;51.854;6.622;2022-09-09T16:17:44;4.35;;;1.38;;
14203;SDS011;7185;51.854;6.622;2022-09-09T16:20:16;8.00;;;3.13;;
14203;SDS011;7185;51.854;6.622;2022-09-09T16:22:48;4.82;;;1.90;;
14203;SDS011;7185;51.854;6.622;2022-09-09T16:25:21;6.13;;;1.75;;
14203;SDS011;7185;51.854;6.622;2022-09-09T16:27:54;5.55;;;2.10;;
14203;SDS011;7185;51.854;6.622;2022-09-09T16:30:26;5.80;;;1.70;;
14203;SDS011;7185;51.854;6.622;2022-09-09T16:32:57;7.90;;;2.30;;
14203;SDS011;7185;51.854;6.622;2022-09-09T16:35:29;5.32;;;2.08;;
14203;SDS011;7185;51.854;6.622;2022-09-09T16:38:01;5.30;;;2.20;;
14203;SDS011;7185;51.854;6.622;2022-09-09T16:40:33;7.05;;;2.50;;
14203;SDS011;7185;51.854;6.622;2022-09-09T16:43:07;6.40;;;2.35;;
14203;SDS011;7185;51.854;6.622;2022-09-09T16:45:42;5.50;;;2.55;;
14203;SDS011;7185;51.854;6.622;2022-09-09T16:48:14;5.97;;;2.80;;
14203;SDS011;7185;51.854;6.622;2022-09-09T16:50:46;7.53;;;2.97;;
14203;SDS011;7185;51.854;6.622;2022-09-09T16:53:18;4.80;;;2.83;;
14203;SDS011;7185;51.854;6.622;2022-09-09T16:55:49;7.47;;;2.47;;
14203;SDS011;7185;51.854;6.622;2022-09-09T16:58:23;8.65;;;2.65;;
14203;SDS011;7185;51.854;6.622;2022-09-09T17:00:57;8.18;;;3.28;;
14203;SDS011;7185;51.854;6.622;2022-09-09T17:03:29;6.68;;;3.00;;
14203;SDS011;7185;51.854;6.622;2022-09-09T17:06:02;8.30;;;3.08;;
14203;SDS011;7185;51.854;6.622;2022-09-09T17:08:39;7.75;;;2.95;;
14203;SDS011;7185;51.854;6.622;2022-09-09T17:11:12;7.00;;;3.00;;
14203;SDS011;7185;51.854;6.622;2022-09-09T17:13:47;8.50;;;2.85;;
14203;SDS011;7185;51.854;6.622;2022-09-09T17:16:19;5.97;;;2.75;;
14203;SDS011;7185;51.854;6.622;2022-09-09T17:18:52;7.25;;;2.85;;
14203;SDS011;7185;51.854;6.622;2022-09-09T17:21:25;6.00;;;2.60;;
14203;SDS011;7185;51.854;6.622;2022-09-09T17:23:59;7.90;;;2.83;;
14203;SDS011;7185;51.854;6.622;2022-09-09T17:26:31;7.03;;;3.38;;
14203;SDS011;7185;51.854;6.622;2022-09-09T17:29:05;9.77;;;3.10;;
14203;SDS011;7185;51.854;6.622;2022-09-09T17:31:40;8.43;;;2.45;;
14203;SDS011;7185;51.854;6.622;2022-09-09T17:34:12;6.72;;;1.92;;
14203;SDS011;7185;51.854;6.622;2022-09-09T17:36:43;2.95;;;1.20;;
14203;SDS011;7185;51.854;6.622;2022-09-09T17:39:15;5.38;;;1.20;;
14203;SDS011;7185;51.854;6.622;2022-09-09T17:41:47;2.45;;;1.13;;
14203;SDS011;7185;51.854;6.622;2022-09-09T17:44:20;2.92;;;0.80;;
14203;SDS011;7185;51.854;6.622;2022-09-09T17:46:51;1.75;;;0.80;;
14203;SDS011;7185;51.854;6.622;2022-09-09T17:49:24;2.88;;;0.98;;
14203;SDS011;7185;51.854;6.622;2022-09-09T17:51:56;2.17;;;0.90;;
14203;SDS011;7185;51.854;6.622;2022-09-09T17:54:28;3.10;;;0.90;;